sensor_id;sensor_type;location;lat;lon;timestamp;pressure;altitude;pressure_sealevel;temperature;humidity
61571;BME280;47463;49.884;10.010;2023-06-01T00:00:01;102050;;;15.8;51
61571;BME280;47463;49.884;10.010;2023-06-01T00:05:01;102070;;;15.7;52
61571;BME280;47463;49.884;10.010;2023-06-01T00:10:01;102060;;;15.6;52
61571;BME280;47463;49.884;10.010;2023-06-01T00:15:01;102060;;;15.6;52
61571;BME280;47463;49.884;10.010;2023-06-01T00:20:01;102060;;;15.6;52
61571;BME280;47463;49.884;10.010;2023-06-01T00:25:01;102060;;;15.6;52
61571;BME280;47463;49.884;10.010;2023-06-01T00:30:01;102060;;;15.5;52
61571;BME280;47463;49.884;10.010;2023-06-01T00:35:01;102050;;;15.5;52
61571;BME280;47463;49.884;10.010;2023-06-01T00:40:01;102050;;;15.3;53
61571;BME280;47463;49.884;10.010;2023-06-01T00:45:01;102050;;;15.3;53
61571;BME280;47463;49.884;10.010;2023-06-01T00:50:01;102050;;;15.2;53
61571;BME280;47463;49.884;10.010;2023-06-01T00:55:01;102050;;;15.1;53
61571;BME280;47463;49.884;10.010;2023-06-01T01:00:01;102050;;;15;54
61571;BME280;47463;49.884;10.010;2023-06-01T01:05:01;102040;;;14.8;54
61571;BME280;47463;49.884;10.010;2023-06-01T01:10:04;102040;;;14.7;54
61571;BME280;47463;49.884;10.010;2023-06-01T01:15:01;102050;;;14.7;54
61571;BME280;47463;49.884;10.010;2023-06-01T01:20:02;102050;;;14.7;54
61571;BME280;47463;49.884;10.010;2023-06-01T01:25:05;102050;;;14.6;55
61571;BME280;47463;49.884;10.010;2023-06-01T01:30:02;102040;;;14.7;55
61571;BME280;47463;49.884;10.010;2023-06-01T01:35:01;102050;;;14.6;55
61571;BME280;47463;49.884;10.010;2023-06-01T01:40:01;102050;;;14.4;55
61571;BME280;47463;49.884;10.010;2023-06-01T01:45:01;102050;;;14.5;55
61571;BME280;47463;49.884;10.010;2023-06-01T01:50:03;102060;;;14.7;55
61571;BME280;47463;49.884;10.010;2023-06-01T01:55:01;102050;;;14.9;54
61571;BME280;47463;49.884;10.010;2023-06-01T02:00:01;102040;;;14.8;54
61571;BME280;47463;49.884;10.010;2023-06-01T02:05:01;102050;;;14.7;55
61571;BME280;47463;49.884;10.010;2023-06-01T02:10:01;102040;;;14.6;55
61571;BME280;47463;49.884;10.010;2023-06-01T02:15:01;102030;;;14.6;55
61571;BME280;47463;49.884;10.010;2023-06-01T02:20:01;102030;;;14.5;55
61571;BME280;47463;49.884;10.010;2023-06-01T02:25:01;102030;;;14.5;55
61571;BME280;47463;49.884;10.010;2023-06-01T02:30:01;102030;;;14.5;55
61571;BME280;47463;49.884;10.010;2023-06-01T02:35:01;102030;;;14.4;55
61571;BME280;47463;49.884;10.010;2023-06-01T02:40:01;102020;;;14.4;55
61571;BME280;47463;49.884;10.010;2023-06-01T02:45:01;102020;;;14.5;55
61571;BME280;47463;49.884;10.010;2023-06-01T02:50:01;102020;;;14.4;55
61571;BME280;47463;49.884;10.010;2023-06-01T02:55:01;102020;;;14.4;55
61571;BME280;47463;49.884;10.010;2023-06-01T03:00:01;102020;;;14.5;55
61571;BME280;47463;49.884;10.010;2023-06-01T03:05:01;102010;;;14.4;55
61571;BME280;47463;49.884;10.010;2023-06-01T03:10:01;102010;;;14.4;55
61571;BME280;47463;49.884;10.010;2023-06-01T03:15:01;102020;;;14.4;55
61571;BME280;47463;49.884;10.010;2023-06-01T03:20:01;102020;;;14.4;55
61571;BME280;47463;49.884;10.010;2023-06-01T03:25:01;102020;;;14.3;55
61571;BME280;47463;49.884;10.010;2023-06-01T03:30:01;102020;;;14.3;55
61571;BME280;47463;49.884;10.010;2023-06-01T03:35:01;102010;;;14.2;55
61571;BME280;47463;49.884;10.010;2023-06-01T03:40:01;102020;;;14.2;56
61571;BME280;47463;49.884;10.010;2023-06-01T03:45:01;102020;;;14.3;55
61571;BME280;47463;49.884;10.010;2023-06-01T03:50:01;102030;;;14.4;55
61571;BME280;47463;49.884;10.010;2023-06-01T03:55:01;102020;;;14.5;55
61571;BME280;47463;49.884;10.010;2023-06-01T04:00:01;102030;;;14.6;54
61571;BME280;47463;49.884;10.010;2023-06-01T04:05:01;102030;;;14.6;54
61571;BME280;47463;49.884;10.010;2023-06-01T04:10:01;102030;;;14.7;54
61571;BME280;47463;49.884;10.010;2023-06-01T04:15:01;102030;;;14.9;54
61571;BME280;47463;49.884;10.010;2023-06-01T04:20:01;102020;;;15;53
61571;BME280;47463;49.884;10.010;2023-06-01T04:25:01;102020;;;15.1;53
61571;BME280;47463;49.884;10.010;2023-06-01T04:30:01;102030;;;15.2;53
61571;BME280;47463;49.884;10.010;2023-06-01T04:35:01;102020;;;15.3;53
61571;BME280;47463;49.884;10.010;2023-06-01T04:40:01;102030;;;15.4;52
61571;BME280;47463;49.884;10.010;2023-06-01T04:45:01;102030;;;15.5;52
61571;BME280;47463;49.884;10.010;2023-06-01T04:50:01;102020;;;15.7;52
61571;BME280;47463;49.884;10.010;2023-06-01T04:55:01;102030;;;15.8;51
61571;BME280;47463;49.884;10.010;2023-06-01T05:00:01;102030;;;15.9;51
61571;BME280;47463;49.884;10.010;2023-06-01T05:05:01;102030;;;16.1;51
61571;BME280;47463;49.884;10.010;2023-06-01T05:10:01;102030;;;16.1;51
61571;BME280;47463;49.884;10.010;2023-06-01T05:15:01;102040;;;16.3;51
61571;BME280;47463;49.884;10.010;2023-06-01T05:20:01;102030;;;16.3;51
61571;BME280;47463;49.884;10.010;2023-06-01T05:25:01;102040;;;16.5;50
61571;BME280;47463;49.884;10.010;2023-06-01T05:30:01;102040;;;16.8;50
61571;BME280;47463;49.884;10.010;2023-06-01T05:35:01;102030;;;16.9;50
61571;BME280;47463;49.884;10.010;2023-06-01T05:40:01;102030;;;17.2;49
61571;BME280;47463;49.884;10.010;2023-06-01T05:45:01;102030;;;17.5;48
61571;BME280;47463;49.884;10.010;2023-06-01T05:50:01;102030;;;17.9;47
61571;BME280;47463;49.884;10.010;2023-06-01T05:55:01;102020;;;18.3;47
61571;BME280;47463;49.884;10.010;2023-06-01T06:00:01;102020;;;18.2;47
61571;BME280;47463;49.884;10.010;2023-06-01T06:05:01;102030;;;18;47
61571;BME280;47463;49.884;10.010;2023-06-01T06:10:01;102030;;;18.3;47
61571;BME280;47463;49.884;10.010;2023-06-01T06:15:01;102030;;;18.2;47
61571;BME280;47463;49.884;10.010;2023-06-01T06:20:01;102040;;;17.9;48
61571;BME280;47463;49.884;10.010;2023-06-01T06:25:01;102030;;;18;47
61571;BME280;47463;49.884;10.010;2023-06-01T06:30:01;102040;;;18.3;46
61571;BME280;47463;49.884;10.010;2023-06-01T06:35:01;102040;;;18.2;46
61571;BME280;47463;49.884;10.010;2023-06-01T06:40:01;102030;;;18.8;45
61571;BME280;47463;49.884;10.010;2023-06-01T06:45:01;102030;;;18.6;45
61571;BME280;47463;49.884;10.010;2023-06-01T06:50:01;102020;;;19.3;44
61571;BME280;47463;49.884;10.010;2023-06-01T06:55:01;102020;;;19;45
61571;BME280;47463;49.884;10.010;2023-06-01T07:00:01;102010;;;19.1;44
61571;BME280;47463;49.884;10.010;2023-06-01T07:05:01;102010;;;19.3;44
61571;BME280;47463;49.884;10.010;2023-06-01T07:10:01;102010;;;19.4;44
61571;BME280;47463;49.884;10.010;2023-06-01T07:15:01;102010;;;19.5;44
61571;BME280;47463;49.884;10.010;2023-06-01T07:20:01;102000;;;20;43
61571;BME280;47463;49.884;10.010;2023-06-01T07:25:01;102000;;;20.2;42
61571;BME280;47463;49.884;10.010;2023-06-01T07:30:01;102010;;;20.4;42
61571;BME280;47463;49.884;10.010;2023-06-01T07:35:01;102010;;;20.7;42
61571;BME280;47463;49.884;10.010;2023-06-01T07:40:01;102000;;;20.6;42
61571;BME280;47463;49.884;10.010;2023-06-01T07:45:01;102000;;;21;41
61571;BME280;47463;49.884;10.010;2023-06-01T07:50:01;102000;;;21.4;41
61571;BME280;47463;49.884;10.010;2023-06-01T07:55:01;102000;;;21.2;41
61571;BME280;47463;49.884;10.010;2023-06-01T08:00:01;101990;;;20.6;40
61571;BME280;47463;49.884;10.010;2023-06-01T08:05:01;101980;;;21;41
61571;BME280;47463;49.884;10.010;2023-06-01T08:10:01;101980;;;21.2;41
61571;BME280;47463;49.884;10.010;2023-06-01T08:15:01;101970;;;21.7;40
61571;BME280;47463;49.884;10.010;2023-06-01T08:20:01;101970;;;21.6;40
61571;BME280;47463;49.884;10.010;2023-06-01T08:25:01;101960;;;22;40
61571;BME280;47463;49.884;10.010;2023-06-01T08:30:01;101970;;;21.8;39
61571;BME280;47463;49.884;10.010;2023-06-01T08:35:01;101960;;;21.9;40
61571;BME280;47463;49.884;10.010;2023-06-01T08:40:01;101960;;;22.3;39
61571;BME280;47463;49.884;10.010;2023-06-01T08:45:03;101960;;;22.4;39
61571;BME280;47463;49.884;10.010;2023-06-01T08:50:01;101940;;;22.4;40
61571;BME280;47463;49.884;10.010;2023-06-01T08:55:01;101940;;;22.6;38
61571;BME280;47463;49.884;10.010;2023-06-01T09:00:01;101940;;;22.9;37
61571;BME280;47463;49.884;10.010;2023-06-01T09:05:01;101940;;;22.8;37
61571;BME280;47463;49.884;10.010;2023-06-01T09:10:01;101930;;;22.9;37
61571;BME280;47463;49.884;10.010;2023-06-01T09:15:09;101920;;;22.8;37
61571;BME280;47463;49.884;10.010;2023-06-01T09:20:01;101910;;;22.6;35
61571;BME280;47463;49.884;10.010;2023-06-01T09:25:01;101910;;;23;34
61571;BME280;47463;49.884;10.010;2023-06-01T09:30:01;101900;;;23.2;34
61571;BME280;47463;49.884;10.010;2023-06-01T09:35:01;101890;;;23.9;34
61571;BME280;47463;49.884;10.010;2023-06-01T09:40:01;101900;;;23.6;34
61571;BME280;47463;49.884;10.010;2023-06-01T09:45:13;101890;;;23.3;34
61571;BME280;47463;49.884;10.010;2023-06-01T09:50:01;101880;;;23.8;33
61571;BME280;47463;49.884;10.010;2023-06-01T09:55:04;101890;;;23.5;33
61571;BME280;47463;49.884;10.010;2023-06-01T10:00:01;101870;;;23.6;33
61571;BME280;47463;49.884;10.010;2023-06-01T10:05:01;101870;;;23.3;34
61571;BME280;47463;49.884;10.010;2023-06-01T10:10:01;101850;;;23.5;33
61571;BME280;47463;49.884;10.010;2023-06-01T10:15:01;101840;;;23.6;33
61571;BME280;47463;49.884;10.010;2023-06-01T10:20:01;101840;;;23.9;33
61571;BME280;47463;49.884;10.010;2023-06-01T10:25:01;101840;;;24.1;33
61571;BME280;47463;49.884;10.010;2023-06-01T10:30:01;101830;;;24.4;32
61571;BME280;47463;49.884;10.010;2023-06-01T10:35:01;101830;;;24.1;32
61571;BME280;47463;49.884;10.010;2023-06-01T10:40:30;101830;;;23.9;33
61571;BME280;47463;49.884;10.010;2023-06-01T10:45:01;101820;;;24.8;32
61571;BME280;47463;49.884;10.010;2023-06-01T10:50:08;101810;;;24.3;32
61571;BME280;47463;49.884;10.010;2023-06-01T10:55:18;101810;;;24.3;32
61571;BME280;47463;49.884;10.010;2023-06-01T11:00:17;101810;;;24.3;32
61571;BME280;47463;49.884;10.010;2023-06-01T11:05:32;101800;;;24.1;32
61571;BME280;47463;49.884;10.010;2023-06-01T11:10:01;101800;;;24.8;32
61571;BME280;47463;49.884;10.010;2023-06-01T11:15:08;101810;;;24.9;32
61571;BME280;47463;49.884;10.010;2023-06-01T11:20:01;101790;;;24.6;32
61571;BME280;47463;49.884;10.010;2023-06-01T11:25:02;101780;;;24.3;32
61571;BME280;47463;49.884;10.010;2023-06-01T11:30:01;101770;;;25;32
61571;BME280;47463;49.884;10.010;2023-06-01T11:35:14;101770;;;25.3;31
61571;BME280;47463;49.884;10.010;2023-06-01T11:40:04;101750;;;24.6;31
61571;BME280;47463;49.884;10.010;2023-06-01T11:45:01;101760;;;24.7;31
61571;BME280;47463;49.884;10.010;2023-06-01T11:50:01;101740;;;24.9;31
61571;BME280;47463;49.884;10.010;2023-06-01T11:55:01;101740;;;25.1;32
61571;BME280;47463;49.884;10.010;2023-06-01T12:00:01;101730;;;25.4;32
61571;BME280;47463;49.884;10.010;2023-06-01T12:05:01;101720;;;25.7;31
61571;BME280;47463;49.884;10.010;2023-06-01T12:10:01;101720;;;26.5;31
61571;BME280;47463;49.884;10.010;2023-06-01T12:15:01;101730;;;25.4;31
61571;BME280;47463;49.884;10.010;2023-06-01T12:20:01;101720;;;25.4;31
61571;BME280;47463;49.884;10.010;2023-06-01T12:25:04;101710;;;25.5;31
61571;BME280;47463;49.884;10.010;2023-06-01T12:30:01;101700;;;25.3;32
61571;BME280;47463;49.884;10.010;2023-06-01T12:35:02;101690;;;25.2;31
61571;BME280;47463;49.884;10.010;2023-06-01T12:40:01;101700;;;25.7;31
61571;BME280;47463;49.884;10.010;2023-06-01T12:45:01;101690;;;26.2;30
61571;BME280;47463;49.884;10.010;2023-06-01T12:50:01;101690;;;26.4;29
61571;BME280;47463;49.884;10.010;2023-06-01T12:55:01;101690;;;26.1;29
61571;BME280;47463;49.884;10.010;2023-06-01T13:00:01;101680;;;26;31
61571;BME280;47463;49.884;10.010;2023-06-01T13:05:01;101680;;;26.1;30
61571;BME280;47463;49.884;10.010;2023-06-01T13:10:01;101680;;;26.3;30
61571;BME280;47463;49.884;10.010;2023-06-01T13:15:01;101660;;;26.2;31
61571;BME280;47463;49.884;10.010;2023-06-01T13:20:01;101650;;;26.2;31
61571;BME280;47463;49.884;10.010;2023-06-01T13:25:01;101650;;;26.1;32
61571;BME280;47463;49.884;10.010;2023-06-01T13:30:01;101640;;;26.4;31
61571;BME280;47463;49.884;10.010;2023-06-01T13:35:01;101650;;;27.2;31
61571;BME280;47463;49.884;10.010;2023-06-01T13:40:01;101630;;;26.6;30
61571;BME280;47463;49.884;10.010;2023-06-01T13:45:01;101630;;;26;31
61571;BME280;47463;49.884;10.010;2023-06-01T13:50:01;101620;;;26.3;31
61571;BME280;47463;49.884;10.010;2023-06-01T13:55:01;101610;;;26.2;32
61571;BME280;47463;49.884;10.010;2023-06-01T14:00:01;101620;;;25.9;32
61571;BME280;47463;49.884;10.010;2023-06-01T14:05:01;101600;;;26.8;32
61571;BME280;47463;49.884;10.010;2023-06-01T14:10:01;101600;;;26.5;32
61571;BME280;47463;49.884;10.010;2023-06-01T14:15:01;101590;;;25.9;32
61571;BME280;47463;49.884;10.010;2023-06-01T14:20:01;101590;;;25.7;31
61571;BME280;47463;49.884;10.010;2023-06-01T14:25:01;101600;;;26.3;32
61571;BME280;47463;49.884;10.010;2023-06-01T14:30:01;101590;;;26.8;31
61571;BME280;47463;49.884;10.010;2023-06-01T14:35:01;101570;;;26.5;28
61571;BME280;47463;49.884;10.010;2023-06-01T14:40:01;101570;;;26.1;29
61571;BME280;47463;49.884;10.010;2023-06-01T14:45:01;101570;;;26;29
61571;BME280;47463;49.884;10.010;2023-06-01T14:50:01;101560;;;26.5;29
61571;BME280;47463;49.884;10.010;2023-06-01T14:55:01;101560;;;26.2;28
61571;BME280;47463;49.884;10.010;2023-06-01T15:00:01;101560;;;26;27
61571;BME280;47463;49.884;10.010;2023-06-01T15:05:01;101550;;;26.1;27
61571;BME280;47463;49.884;10.010;2023-06-01T15:10:01;101540;;;26.1;26
61571;BME280;47463;49.884;10.010;2023-06-01T15:15:01;101540;;;26.1;27
61571;BME280;47463;49.884;10.010;2023-06-01T15:20:01;101530;;;25.9;28
61571;BME280;47463;49.884;10.010;2023-06-01T15:25:01;101530;;;26.3;28
61571;BME280;47463;49.884;10.010;2023-06-01T15:30:01;101530;;;26.4;28
61571;BME280;47463;49.884;10.010;2023-06-01T15:35:01;101520;;;26.8;27
61571;BME280;47463;49.884;10.010;2023-06-01T15:40:01;101510;;;26.7;28
61571;BME280;47463;49.884;10.010;2023-06-01T15:45:01;101510;;;26.9;27
61571;BME280;47463;49.884;10.010;2023-06-01T15:50:01;101500;;;26.3;28
61571;BME280;47463;49.884;10.010;2023-06-01T16:00:01;101500;;;26.2;29
61571;BME280;47463;49.884;10.010;2023-06-01T16:05:01;101500;;;26.5;30
61571;BME280;47463;49.884;10.010;2023-06-01T16:10:01;101490;;;25.9;30
61571;BME280;47463;49.884;10.010;2023-06-01T16:15:01;101490;;;26.1;30
61571;BME280;47463;49.884;10.010;2023-06-01T16:20:01;101480;;;26.2;30
61571;BME280;47463;49.884;10.010;2023-06-01T16:25:01;101480;;;25.9;30
61571;BME280;47463;49.884;10.010;2023-06-01T16:30:01;101490;;;25.7;30
61571;BME280;47463;49.884;10.010;2023-06-01T16:35:01;101480;;;25.7;31
61571;BME280;47463;49.884;10.010;2023-06-01T16:40:01;101480;;;25.4;32
61571;BME280;47463;49.884;10.010;2023-06-01T16:45:01;101480;;;25.4;32
61571;BME280;47463;49.884;10.010;2023-06-01T16:50:01;101480;;;24.7;30
61571;BME280;47463;49.884;10.010;2023-06-01T16:55:01;101490;;;24.6;30
61571;BME280;47463;49.884;10.010;2023-06-01T17:00:01;101500;;;24.5;30
61571;BME280;47463;49.884;10.010;2023-06-01T17:05:01;101500;;;23.9;29
61571;BME280;47463;49.884;10.010;2023-06-01T17:10:01;101500;;;23.6;29
61571;BME280;47463;49.884;10.010;2023-06-01T17:15:01;101500;;;23.6;28
61571;BME280;47463;49.884;10.010;2023-06-01T17:20:01;101500;;;23.4;28
61571;BME280;47463;49.884;10.010;2023-06-01T17:25:01;101500;;;23.1;28
61571;BME280;47463;49.884;10.010;2023-06-01T17:30:01;101500;;;23.1;28
61571;BME280;47463;49.884;10.010;2023-06-01T17:35:01;101510;;;22.9;28
61571;BME280;47463;49.884;10.010;2023-06-01T17:40:01;101510;;;22.9;28
61571;BME280;47463;49.884;10.010;2023-06-01T17:45:01;101510;;;22.8;29
61571;BME280;47463;49.884;10.010;2023-06-01T17:50:01;101500;;;22.8;29
61571;BME280;47463;49.884;10.010;2023-06-01T17:55:01;101510;;;22.9;28
61571;BME280;47463;49.884;10.010;2023-06-01T18:00:01;101500;;;23;28
61571;BME280;47463;49.884;10.010;2023-06-01T18:05:01;101490;;;22.9;28
61571;BME280;47463;49.884;10.010;2023-06-01T18:10:01;101510;;;22.9;28
61571;BME280;47463;49.884;10.010;2023-06-01T18:15:01;101500;;;22.9;29
61571;BME280;47463;49.884;10.010;2023-06-01T18:20:01;101500;;;22.7;30
61571;BME280;47463;49.884;10.010;2023-06-01T18:25:01;101500;;;22.6;30
61571;BME280;47463;49.884;10.010;2023-06-01T18:30:01;101510;;;22.5;31
61571;BME280;47463;49.884;10.010;2023-06-01T18:35:01;101510;;;22.3;32
61571;BME280;47463;49.884;10.010;2023-06-01T18:40:01;101510;;;22.2;32
61571;BME280;47463;49.884;10.010;2023-06-01T18:45:01;101520;;;22;33
61571;BME280;47463;49.884;10.010;2023-06-01T18:50:01;101520;;;21.7;34
61571;BME280;47463;49.884;10.010;2023-06-01T18:55:01;101520;;;21.5;34
61571;BME280;47463;49.884;10.010;2023-06-01T19:00:01;101530;;;21.1;35
61571;BME280;47463;49.884;10.010;2023-06-01T19:05:01;101530;;;20.9;35
61571;BME280;47463;49.884;10.010;2023-06-01T19:10:03;101530;;;20.7;35
61571;BME280;47463;49.884;10.010;2023-06-01T19:15:01;101530;;;20.5;35
61571;BME280;47463;49.884;10.010;2023-06-01T19:20:02;101530;;;20.3;36
61571;BME280;47463;49.884;10.010;2023-06-01T19:25:01;101540;;;20.2;36
61571;BME280;47463;49.884;10.010;2023-06-01T19:30:01;101540;;;20;36
61571;BME280;47463;49.884;10.010;2023-06-01T19:35:01;101540;;;19.8;37
61571;BME280;47463;49.884;10.010;2023-06-01T19:40:01;101540;;;19.6;37
61571;BME280;47463;49.884;10.010;2023-06-01T19:45:01;101550;;;19.6;37
61571;BME280;47463;49.884;10.010;2023-06-01T19:50:01;101550;;;19.3;37
61571;BME280;47463;49.884;10.010;2023-06-01T19:55:01;101560;;;19.1;37
61571;BME280;47463;49.884;10.010;2023-06-01T20:00:01;101570;;;19;37
61571;BME280;47463;49.884;10.010;2023-06-01T20:05:04;101580;;;18.8;37
61571;BME280;47463;49.884;10.010;2023-06-01T20:10:01;101580;;;18.7;37
61571;BME280;47463;49.884;10.010;2023-06-01T20:15:01;101580;;;18.8;37
61571;BME280;47463;49.884;10.010;2023-06-01T20:20:02;101580;;;18.9;36
61571;BME280;47463;49.884;10.010;2023-06-01T20:25:01;101590;;;18.7;36
61571;BME280;47463;49.884;10.010;2023-06-01T20:30:01;101600;;;18.7;36
61571;BME280;47463;49.884;10.010;2023-06-01T20:35:01;101600;;;18.7;36
61571;BME280;47463;49.884;10.010;2023-06-01T20:40:01;101610;;;18.6;36
61571;BME280;47463;49.884;10.010;2023-06-01T20:45:01;101610;;;18.5;37
61571;BME280;47463;49.884;10.010;2023-06-01T20:50:01;101610;;;18.3;37
61571;BME280;47463;49.884;10.010;2023-06-01T20:55:01;101610;;;18.3;38
61571;BME280;47463;49.884;10.010;2023-06-01T21:00:01;101610;;;18.1;38
61571;BME280;47463;49.884;10.010;2023-06-01T21:05:01;101620;;;17.9;39
61571;BME280;47463;49.884;10.010;2023-06-01T21:10:01;101620;;;17.8;39
61571;BME280;47463;49.884;10.010;2023-06-01T21:15:01;101630;;;17.6;40
61571;BME280;47463;49.884;10.010;2023-06-01T21:20:01;101630;;;17.5;40
61571;BME280;47463;49.884;10.010;2023-06-01T21:25:01;101620;;;17.3;41
61571;BME280;47463;49.884;10.010;2023-06-01T21:30:01;101640;;;17.1;42
61571;BME280;47463;49.884;10.010;2023-06-01T21:35:01;101640;;;17;42
61571;BME280;47463;49.884;10.010;2023-06-01T21:40:01;101650;;;16.8;43
61571;BME280;47463;49.884;10.010;2023-06-01T21:45:01;101660;;;16.7;44
61571;BME280;47463;49.884;10.010;2023-06-01T21:50:01;101660;;;16.6;45
61571;BME280;47463;49.884;10.010;2023-06-01T21:55:01;101650;;;16.4;45
61571;BME280;47463;49.884;10.010;2023-06-01T22:00:01;101660;;;16.2;46
61571;BME280;47463;49.884;10.010;2023-06-01T22:05:01;101660;;;16.1;46
61571;BME280;47463;49.884;10.010;2023-06-01T22:10:01;101670;;;15.8;47
61571;BME280;47463;49.884;10.010;2023-06-01T22:15:01;101690;;;15.5;49
61571;BME280;47463;49.884;10.010;2023-06-01T22:20:01;101680;;;15.3;50
61571;BME280;47463;49.884;10.010;2023-06-01T22:25:01;101680;;;15.2;50
61571;BME280;47463;49.884;10.010;2023-06-01T22:30:01;101690;;;15;52
61571;BME280;47463;49.884;10.010;2023-06-01T22:35:01;101680;;;14.9;53
61571;BME280;47463;49.884;10.010;2023-06-01T22:40:01;101680;;;14.8;54
61571;BME280;47463;49.884;10.010;2023-06-01T22:45:02;101690;;;14.7;55
61571;BME280;47463;49.884;10.010;2023-06-01T22:50:01;101690;;;14.4;57
61571;BME280;47463;49.884;10.010;2023-06-01T22:55:01;101700;;;14.2;58
61571;BME280;47463;49.884;10.010;2023-06-01T23:00:01;101700;;;13.9;59
61571;BME280;47463;49.884;10.010;2023-06-01T23:05:01;101700;;;13.5;60
61571;BME280;47463;49.884;10.010;2023-06-01T23:10:01;101700;;;13.3;63
61571;BME280;47463;49.884;10.010;2023-06-01T23:15:01;101710;;;13.1;64
61571;BME280;47463;49.884;10.010;2023-06-01T23:20:01;101710;;;12.8;67
61571;BME280;47463;49.884;10.010;2023-06-01T23:25:01;101730;;;12.5;69
61571;BME280;47463;49.884;10.010;2023-06-01T23:30:01;101720;;;12.5;70
61571;BME280;47463;49.884;10.010;2023-06-01T23:35:01;101730;;;12.4;71
61571;BME280;47463;49.884;10.010;2023-06-01T23:40:01;101730;;;12.3;72
61571;BME280;47463;49.884;10.010;2023-06-01T23:45:01;101740;;;12.3;72
61571;BME280;47463;49.884;10.010;2023-06-01T23:50:01;101740;;;12.1;73
61571;BME280;47463;49.884;10.010;2023-06-01T23:55:01;101740;;;11.9;74
